sensor_id;sensor_type;location;lat;lon;timestamp;P1;durP1;ratioP1;P2;durP2;ratioP2
67372;SDS011;54257;54.496;18.412;2022-12-17T00:02:06;48.20;;;26.30;;
67372;SDS011;54257;54.496;18.412;2022-12-17T00:04:52;56.10;;;29.80;;
67372;SDS011;54257;54.496;18.412;2022-12-17T00:07:38;58.60;;;28.70;;
67372;SDS011;54257;54.496;18.412;2022-12-17T00:10:23;54.90;;;30.50;;
67372;SDS011;54257;54.496;18.412;2022-12-17T00:13:19;56.40;;;29.60;;
67372;SDS011;54257;54.496;18.412;2022-12-17T00:16:07;49.10;;;26.70;;
67372;SDS011;54257;54.496;18.412;2022-12-17T00:18:54;57.40;;;30.00;;
67372;SDS011;54257;54.496;18.412;2022-12-17T00:21:39;52.00;;;27.60;;
67372;SDS011;54257;54.496;18.412;2022-12-17T00:24:25;69.60;;;33.60;;
67372;SDS011;54257;54.496;18.412;2022-12-17T00:27:21;105.90;;;50.60;;
67372;SDS011;54257;54.496;18.412;2022-12-17T00:30:08;85.10;;;39.30;;
67372;SDS011;54257;54.496;18.412;2022-12-17T00:32:54;77.70;;;37.70;;
67372;SDS011;54257;54.496;18.412;2022-12-17T00:35:40;80.50;;;43.40;;
67372;SDS011;54257;54.496;18.412;2022-12-17T00:38:26;59.70;;;31.60;;
67372;SDS011;54257;54.496;18.412;2022-12-17T00:41:11;61.60;;;31.30;;
67372;SDS011;54257;54.496;18.412;2022-12-17T00:43:57;53.00;;;29.90;;
67372;SDS011;54257;54.496;18.412;2022-12-17T00:46:43;60.80;;;28.10;;
67372;SDS011;54257;54.496;18.412;2022-12-17T00:49:28;49.60;;;25.80;;
67372;SDS011;54257;54.496;18.412;2022-12-17T00:52:14;50.60;;;26.20;;
67372;SDS011;54257;54.496;18.412;2022-12-17T00:55:00;64.10;;;31.30;;
67372;SDS011;54257;54.496;18.412;2022-12-17T00:57:45;55.80;;;27.40;;
67372;SDS011;54257;54.496;18.412;2022-12-17T01:00:36;51.50;;;25.30;;
67372;SDS011;54257;54.496;18.412;2022-12-17T01:03:22;54.60;;;26.90;;
67372;SDS011;54257;54.496;18.412;2022-12-17T01:06:08;52.40;;;28.50;;
67372;SDS011;54257;54.496;18.412;2022-12-17T01:08:54;57.90;;;30.20;;
67372;SDS011;54257;54.496;18.412;2022-12-17T01:11:41;49.70;;;26.00;;
67372;SDS011;54257;54.496;18.412;2022-12-17T01:14:26;52.60;;;28.00;;
67372;SDS011;54257;54.496;18.412;2022-12-17T01:17:12;53.50;;;25.50;;
67372;SDS011;54257;54.496;18.412;2022-12-17T01:19:58;55.00;;;27.10;;
67372;SDS011;54257;54.496;18.412;2022-12-17T01:22:44;55.50;;;26.90;;
67372;SDS011;54257;54.496;18.412;2022-12-17T01:25:30;52.90;;;26.50;;
67372;SDS011;54257;54.496;18.412;2022-12-17T01:28:20;48.20;;;25.60;;
67372;SDS011;54257;54.496;18.412;2022-12-17T01:31:14;46.70;;;25.20;;
67372;SDS011;54257;54.496;18.412;2022-12-17T01:34:00;43.50;;;24.70;;
67372;SDS011;54257;54.496;18.412;2022-12-17T01:36:46;41.60;;;22.20;;
67372;SDS011;54257;54.496;18.412;2022-12-17T01:39:32;44.90;;;23.70;;
67372;SDS011;54257;54.496;18.412;2022-12-17T01:42:17;51.50;;;26.40;;
67372;SDS011;54257;54.496;18.412;2022-12-17T01:45:04;50.20;;;23.10;;
67372;SDS011;54257;54.496;18.412;2022-12-17T01:47:52;40.80;;;21.00;;
67372;SDS011;54257;54.496;18.412;2022-12-17T01:50:43;38.70;;;21.50;;
67372;SDS011;54257;54.496;18.412;2022-12-17T01:53:34;44.30;;;22.60;;
67372;SDS011;54257;54.496;18.412;2022-12-17T01:56:25;41.90;;;21.60;;
67372;SDS011;54257;54.496;18.412;2022-12-17T01:59:13;43.50;;;22.00;;
67372;SDS011;54257;54.496;18.412;2022-12-17T02:02:00;47.30;;;23.60;;
67372;SDS011;54257;54.496;18.412;2022-12-17T02:04:45;45.80;;;24.70;;
67372;SDS011;54257;54.496;18.412;2022-12-17T02:10:43;41.50;;;24.30;;
67372;SDS011;54257;54.496;18.412;2022-12-17T02:13:40;47.80;;;22.90;;
67372;SDS011;54257;54.496;18.412;2022-12-17T02:16:41;42.70;;;21.40;;
67372;SDS011;54257;54.496;18.412;2022-12-17T02:26:16;39.20;;;21.20;;
67372;SDS011;54257;54.496;18.412;2022-12-17T02:29:11;40.70;;;21.30;;
67372;SDS011;54257;54.496;18.412;2022-12-17T02:31:57;41.10;;;21.70;;
67372;SDS011;54257;54.496;18.412;2022-12-17T02:34:46;42.70;;;23.10;;
67372;SDS011;54257;54.496;18.412;2022-12-17T02:37:34;38.70;;;20.80;;
67372;SDS011;54257;54.496;18.412;2022-12-17T02:40:20;40.70;;;21.90;;
67372;SDS011;54257;54.496;18.412;2022-12-17T02:43:07;43.10;;;23.00;;
67372;SDS011;54257;54.496;18.412;2022-12-17T02:45:55;43.30;;;23.20;;
67372;SDS011;54257;54.496;18.412;2022-12-17T02:48:41;45.00;;;21.90;;
67372;SDS011;54257;54.496;18.412;2022-12-17T02:51:27;44.10;;;23.30;;
67372;SDS011;54257;54.496;18.412;2022-12-17T02:54:14;46.60;;;23.50;;
67372;SDS011;54257;54.496;18.412;2022-12-17T02:56:59;44.60;;;24.20;;
67372;SDS011;54257;54.496;18.412;2022-12-17T02:59:45;50.20;;;23.80;;
67372;SDS011;54257;54.496;18.412;2022-12-17T03:02:31;50.90;;;25.30;;
67372;SDS011;54257;54.496;18.412;2022-12-17T03:05:17;44.20;;;21.80;;
67372;SDS011;54257;54.496;18.412;2022-12-17T03:08:02;50.40;;;23.90;;
67372;SDS011;54257;54.496;18.412;2022-12-17T03:10:51;50.50;;;24.20;;
67372;SDS011;54257;54.496;18.412;2022-12-17T03:13:37;50.20;;;24.90;;
67372;SDS011;54257;54.496;18.412;2022-12-17T03:16:22;50.40;;;25.30;;
67372;SDS011;54257;54.496;18.412;2022-12-17T03:19:08;50.30;;;24.60;;
67372;SDS011;54257;54.496;18.412;2022-12-17T03:21:54;49.50;;;25.60;;
67372;SDS011;54257;54.496;18.412;2022-12-17T03:24:40;51.80;;;27.40;;
67372;SDS011;54257;54.496;18.412;2022-12-17T03:27:25;52.60;;;26.30;;
67372;SDS011;54257;54.496;18.412;2022-12-17T03:30:11;47.20;;;24.30;;
67372;SDS011;54257;54.496;18.412;2022-12-17T03:32:57;49.50;;;27.20;;
67372;SDS011;54257;54.496;18.412;2022-12-17T03:35:43;49.90;;;25.20;;
67372;SDS011;54257;54.496;18.412;2022-12-17T03:38:28;48.70;;;25.20;;
67372;SDS011;54257;54.496;18.412;2022-12-17T03:41:14;46.60;;;26.20;;
67372;SDS011;54257;54.496;18.412;2022-12-17T03:44:00;45.20;;;22.90;;
67372;SDS011;54257;54.496;18.412;2022-12-17T03:46:46;55.20;;;25.30;;
67372;SDS011;54257;54.496;18.412;2022-12-17T03:49:31;49.00;;;22.60;;
67372;SDS011;54257;54.496;18.412;2022-12-17T03:52:17;48.50;;;23.70;;
67372;SDS011;54257;54.496;18.412;2022-12-17T03:55:03;46.90;;;24.60;;
67372;SDS011;54257;54.496;18.412;2022-12-17T03:57:49;49.00;;;24.80;;
67372;SDS011;54257;54.496;18.412;2022-12-17T04:00:35;51.80;;;26.50;;
67372;SDS011;54257;54.496;18.412;2022-12-17T04:03:23;56.50;;;27.60;;
67372;SDS011;54257;54.496;18.412;2022-12-17T04:06:09;49.00;;;26.20;;
67372;SDS011;54257;54.496;18.412;2022-12-17T04:08:55;57.50;;;27.80;;
67372;SDS011;54257;54.496;18.412;2022-12-17T04:11:41;47.80;;;25.20;;
67372;SDS011;54257;54.496;18.412;2022-12-17T04:14:28;49.20;;;25.00;;
67372;SDS011;54257;54.496;18.412;2022-12-17T04:17:13;40.80;;;21.10;;
67372;SDS011;54257;54.496;18.412;2022-12-17T04:19:59;36.60;;;19.10;;
67372;SDS011;54257;54.496;18.412;2022-12-17T04:22:45;25.30;;;12.90;;
67372;SDS011;54257;54.496;18.412;2022-12-17T04:25:30;17.50;;;9.00;;
67372;SDS011;54257;54.496;18.412;2022-12-17T04:28:19;17.70;;;9.60;;
67372;SDS011;54257;54.496;18.412;2022-12-17T04:31:04;23.30;;;12.50;;
67372;SDS011;54257;54.496;18.412;2022-12-17T04:33:50;22.10;;;11.60;;
67372;SDS011;54257;54.496;18.412;2022-12-17T04:36:43;22.60;;;12.30;;
67372;SDS011;54257;54.496;18.412;2022-12-17T04:39:29;21.70;;;12.20;;
67372;SDS011;54257;54.496;18.412;2022-12-17T04:42:15;25.90;;;11.90;;
67372;SDS011;54257;54.496;18.412;2022-12-17T04:45:01;21.30;;;11.70;;
67372;SDS011;54257;54.496;18.412;2022-12-17T04:47:47;19.50;;;12.00;;
67372;SDS011;54257;54.496;18.412;2022-12-17T04:50:33;20.50;;;11.70;;
67372;SDS011;54257;54.496;18.412;2022-12-17T04:53:18;21.80;;;10.70;;
67372;SDS011;54257;54.496;18.412;2022-12-17T04:56:04;20.70;;;10.80;;
67372;SDS011;54257;54.496;18.412;2022-12-17T04:58:50;17.90;;;10.70;;
67372;SDS011;54257;54.496;18.412;2022-12-17T05:01:36;17.00;;;8.60;;
67372;SDS011;54257;54.496;18.412;2022-12-17T05:04:21;14.30;;;8.60;;
67372;SDS011;54257;54.496;18.412;2022-12-17T05:07:07;13.10;;;7.10;;
67372;SDS011;54257;54.496;18.412;2022-12-17T05:09:53;15.70;;;8.10;;
67372;SDS011;54257;54.496;18.412;2022-12-17T05:12:39;13.90;;;8.20;;
67372;SDS011;54257;54.496;18.412;2022-12-17T05:15:25;14.30;;;9.00;;
67372;SDS011;54257;54.496;18.412;2022-12-17T05:18:11;22.20;;;10.80;;
67372;SDS011;54257;54.496;18.412;2022-12-17T05:20:57;20.60;;;12.00;;
67372;SDS011;54257;54.496;18.412;2022-12-17T05:23:44;23.80;;;12.50;;
67372;SDS011;54257;54.496;18.412;2022-12-17T05:26:30;22.40;;;12.20;;
67372;SDS011;54257;54.496;18.412;2022-12-17T05:29:17;21.20;;;11.80;;
67372;SDS011;54257;54.496;18.412;2022-12-17T05:32:03;22.60;;;12.80;;
67372;SDS011;54257;54.496;18.412;2022-12-17T05:34:48;24.00;;;12.40;;
67372;SDS011;54257;54.496;18.412;2022-12-17T05:37:34;20.10;;;10.80;;
67372;SDS011;54257;54.496;18.412;2022-12-17T05:40:20;16.10;;;9.00;;
67372;SDS011;54257;54.496;18.412;2022-12-17T05:43:06;16.80;;;10.60;;
67372;SDS011;54257;54.496;18.412;2022-12-17T05:45:59;30.40;;;16.60;;
67372;SDS011;54257;54.496;18.412;2022-12-17T05:48:44;30.70;;;17.20;;
67372;SDS011;54257;54.496;18.412;2022-12-17T05:51:30;25.00;;;15.00;;
67372;SDS011;54257;54.496;18.412;2022-12-17T05:54:16;37.40;;;20.20;;
67372;SDS011;54257;54.496;18.412;2022-12-17T05:57:02;49.20;;;24.80;;
67372;SDS011;54257;54.496;18.412;2022-12-17T05:59:48;46.00;;;21.70;;
67372;SDS011;54257;54.496;18.412;2022-12-17T06:02:33;44.40;;;23.10;;
67372;SDS011;54257;54.496;18.412;2022-12-17T06:05:19;48.50;;;25.40;;
67372;SDS011;54257;54.496;18.412;2022-12-17T06:08:05;54.60;;;26.00;;
67372;SDS011;54257;54.496;18.412;2022-12-17T06:10:52;50.00;;;24.30;;
67372;SDS011;54257;54.496;18.412;2022-12-17T06:13:39;46.90;;;24.20;;
67372;SDS011;54257;54.496;18.412;2022-12-17T06:16:25;51.10;;;25.30;;
67372;SDS011;54257;54.496;18.412;2022-12-17T06:19:11;58.90;;;28.70;;
67372;SDS011;54257;54.496;18.412;2022-12-17T06:21:56;58.70;;;29.30;;
67372;SDS011;54257;54.496;18.412;2022-12-17T06:24:42;41.90;;;22.20;;
67372;SDS011;54257;54.496;18.412;2022-12-17T06:27:28;35.00;;;19.00;;
67372;SDS011;54257;54.496;18.412;2022-12-17T06:30:13;33.00;;;18.10;;
67372;SDS011;54257;54.496;18.412;2022-12-17T06:33:06;35.40;;;19.00;;
67372;SDS011;54257;54.496;18.412;2022-12-17T06:35:55;38.60;;;21.30;;
67372;SDS011;54257;54.496;18.412;2022-12-17T06:38:42;44.80;;;22.20;;
67372;SDS011;54257;54.496;18.412;2022-12-17T06:41:28;44.70;;;22.60;;
67372;SDS011;54257;54.496;18.412;2022-12-17T06:44:14;30.90;;;17.40;;
67372;SDS011;54257;54.496;18.412;2022-12-17T06:46:59;33.60;;;20.10;;
67372;SDS011;54257;54.496;18.412;2022-12-17T06:49:45;41.00;;;19.00;;
67372;SDS011;54257;54.496;18.412;2022-12-17T06:52:31;37.20;;;18.80;;
67372;SDS011;54257;54.496;18.412;2022-12-17T06:55:16;34.70;;;18.30;;
67372;SDS011;54257;54.496;18.412;2022-12-17T06:58:03;27.90;;;16.30;;
67372;SDS011;54257;54.496;18.412;2022-12-17T07:00:51;21.80;;;11.50;;
67372;SDS011;54257;54.496;18.412;2022-12-17T07:03:37;23.70;;;15.10;;
67372;SDS011;54257;54.496;18.412;2022-12-17T07:06:26;19.60;;;12.00;;
67372;SDS011;54257;54.496;18.412;2022-12-17T07:09:15;24.10;;;11.40;;
67372;SDS011;54257;54.496;18.412;2022-12-17T07:12:00;20.70;;;11.40;;
67372;SDS011;54257;54.496;18.412;2022-12-17T07:14:46;18.80;;;11.00;;
67372;SDS011;54257;54.496;18.412;2022-12-17T07:17:32;22.70;;;12.50;;
67372;SDS011;54257;54.496;18.412;2022-12-17T07:20:31;20.80;;;11.90;;
67372;SDS011;54257;54.496;18.412;2022-12-17T07:23:17;22.20;;;12.50;;
67372;SDS011;54257;54.496;18.412;2022-12-17T07:26:22;26.60;;;15.00;;
67372;SDS011;54257;54.496;18.412;2022-12-17T07:29:08;28.30;;;14.70;;
67372;SDS011;54257;54.496;18.412;2022-12-17T07:31:53;25.80;;;13.40;;
67372;SDS011;54257;54.496;18.412;2022-12-17T07:34:39;28.90;;;14.20;;
67372;SDS011;54257;54.496;18.412;2022-12-17T07:37:25;24.30;;;12.90;;
67372;SDS011;54257;54.496;18.412;2022-12-17T07:40:11;29.90;;;14.10;;
67372;SDS011;54257;54.496;18.412;2022-12-17T07:42:57;21.50;;;13.20;;
67372;SDS011;54257;54.496;18.412;2022-12-17T07:45:43;24.50;;;12.70;;
67372;SDS011;54257;54.496;18.412;2022-12-17T07:48:29;24.70;;;14.00;;
67372;SDS011;54257;54.496;18.412;2022-12-17T07:51:15;26.40;;;14.50;;
67372;SDS011;54257;54.496;18.412;2022-12-17T07:54:01;26.60;;;14.10;;
67372;SDS011;54257;54.496;18.412;2022-12-17T07:56:46;20.40;;;12.00;;
67372;SDS011;54257;54.496;18.412;2022-12-17T07:59:32;22.30;;;11.60;;
67372;SDS011;54257;54.496;18.412;2022-12-17T08:02:17;21.50;;;11.20;;
67372;SDS011;54257;54.496;18.412;2022-12-17T08:05:03;22.40;;;10.80;;
67372;SDS011;54257;54.496;18.412;2022-12-17T08:07:51;22.80;;;11.90;;
67372;SDS011;54257;54.496;18.412;2022-12-17T08:10:37;20.70;;;10.30;;
67372;SDS011;54257;54.496;18.412;2022-12-17T08:13:23;20.60;;;11.90;;
67372;SDS011;54257;54.496;18.412;2022-12-17T08:16:08;20.60;;;11.20;;
67372;SDS011;54257;54.496;18.412;2022-12-17T08:18:54;20.20;;;11.60;;
67372;SDS011;54257;54.496;18.412;2022-12-17T08:21:40;20.60;;;11.40;;
67372;SDS011;54257;54.496;18.412;2022-12-17T08:24:26;22.40;;;12.00;;
67372;SDS011;54257;54.496;18.412;2022-12-17T08:27:25;21.00;;;11.60;;
67372;SDS011;54257;54.496;18.412;2022-12-17T08:30:11;19.40;;;10.20;;
67372;SDS011;54257;54.496;18.412;2022-12-17T08:33:03;22.40;;;11.70;;
67372;SDS011;54257;54.496;18.412;2022-12-17T08:35:54;19.90;;;11.80;;
67372;SDS011;54257;54.496;18.412;2022-12-17T08:38:41;21.30;;;12.50;;
67372;SDS011;54257;54.496;18.412;2022-12-17T08:41:28;23.40;;;12.50;;
67372;SDS011;54257;54.496;18.412;2022-12-17T08:44:14;24.60;;;12.50;;
67372;SDS011;54257;54.496;18.412;2022-12-17T08:46:59;20.60;;;13.30;;
67372;SDS011;54257;54.496;18.412;2022-12-17T08:49:45;22.80;;;12.40;;
67372;SDS011;54257;54.496;18.412;2022-12-17T08:52:31;28.00;;;14.80;;
67372;SDS011;54257;54.496;18.412;2022-12-17T08:55:22;24.80;;;13.90;;
67372;SDS011;54257;54.496;18.412;2022-12-17T08:58:07;26.00;;;12.70;;
67372;SDS011;54257;54.496;18.412;2022-12-17T09:00:53;27.90;;;14.20;;
67372;SDS011;54257;54.496;18.412;2022-12-17T09:03:43;27.40;;;15.50;;
67372;SDS011;54257;54.496;18.412;2022-12-17T09:06:30;23.90;;;12.50;;
67372;SDS011;54257;54.496;18.412;2022-12-17T09:09:16;24.20;;;11.70;;
67372;SDS011;54257;54.496;18.412;2022-12-17T09:12:02;26.00;;;13.80;;
67372;SDS011;54257;54.496;18.412;2022-12-17T09:14:48;27.40;;;14.00;;
67372;SDS011;54257;54.496;18.412;2022-12-17T09:17:34;22.70;;;12.40;;
67372;SDS011;54257;54.496;18.412;2022-12-17T09:20:20;24.20;;;11.40;;
67372;SDS011;54257;54.496;18.412;2022-12-17T09:23:05;22.60;;;12.40;;
67372;SDS011;54257;54.496;18.412;2022-12-17T09:25:52;21.00;;;11.90;;
67372;SDS011;54257;54.496;18.412;2022-12-17T09:28:39;22.30;;;11.30;;
67372;SDS011;54257;54.496;18.412;2022-12-17T09:31:25;19.80;;;10.40;;
67372;SDS011;54257;54.496;18.412;2022-12-17T09:34:11;20.10;;;11.80;;
67372;SDS011;54257;54.496;18.412;2022-12-17T09:36:57;23.10;;;12.00;;
67372;SDS011;54257;54.496;18.412;2022-12-17T09:39:43;22.40;;;11.70;;
67372;SDS011;54257;54.496;18.412;2022-12-17T09:42:30;22.50;;;11.00;;
67372;SDS011;54257;54.496;18.412;2022-12-17T09:45:28;23.80;;;12.40;;
67372;SDS011;54257;54.496;18.412;2022-12-17T09:51:24;21.60;;;12.30;;
67372;SDS011;54257;54.496;18.412;2022-12-17T09:54:54;22.10;;;11.40;;
67372;SDS011;54257;54.496;18.412;2022-12-17T09:57:34;22.80;;;11.80;;
67372;SDS011;54257;54.496;18.412;2022-12-17T10:00:23;22.10;;;11.70;;
67372;SDS011;54257;54.496;18.412;2022-12-17T10:03:15;20.40;;;11.40;;
67372;SDS011;54257;54.496;18.412;2022-12-17T10:06:08;18.50;;;11.10;;
67372;SDS011;54257;54.496;18.412;2022-12-17T10:09:01;25.30;;;12.30;;
67372;SDS011;54257;54.496;18.412;2022-12-17T10:11:54;22.70;;;12.90;;
67372;SDS011;54257;54.496;18.412;2022-12-17T10:14:42;22.40;;;11.50;;
67372;SDS011;54257;54.496;18.412;2022-12-17T10:17:27;28.30;;;15.10;;
67372;SDS011;54257;54.496;18.412;2022-12-17T10:20:20;26.00;;;12.90;;
67372;SDS011;54257;54.496;18.412;2022-12-17T10:23:09;22.00;;;12.60;;
67372;SDS011;54257;54.496;18.412;2022-12-17T10:25:55;23.10;;;11.70;;
67372;SDS011;54257;54.496;18.412;2022-12-17T10:28:42;22.60;;;11.70;;
67372;SDS011;54257;54.496;18.412;2022-12-17T10:31:29;21.70;;;11.90;;
67372;SDS011;54257;54.496;18.412;2022-12-17T10:34:18;24.60;;;14.70;;
67372;SDS011;54257;54.496;18.412;2022-12-17T10:37:05;24.30;;;15.20;;
67372;SDS011;54257;54.496;18.412;2022-12-17T10:40:13;30.20;;;17.30;;
67372;SDS011;54257;54.496;18.412;2022-12-17T10:46:23;24.00;;;12.70;;
67372;SDS011;54257;54.496;18.412;2022-12-17T10:52:00;21.60;;;12.20;;
67372;SDS011;54257;54.496;18.412;2022-12-17T10:54:55;26.60;;;12.90;;
67372;SDS011;54257;54.496;18.412;2022-12-17T10:57:43;20.30;;;11.60;;
67372;SDS011;54257;54.496;18.412;2022-12-17T11:00:32;20.40;;;10.60;;
67372;SDS011;54257;54.496;18.412;2022-12-17T11:04:17;19.80;;;10.50;;
67372;SDS011;54257;54.496;18.412;2022-12-17T11:09:28;21.80;;;12.40;;
67372;SDS011;54257;54.496;18.412;2022-12-17T11:12:29;21.50;;;11.70;;
67372;SDS011;54257;54.496;18.412;2022-12-17T11:15:23;20.60;;;10.90;;
67372;SDS011;54257;54.496;18.412;2022-12-17T11:18:17;20.40;;;11.40;;
67372;SDS011;54257;54.496;18.412;2022-12-17T11:21:13;25.80;;;14.30;;
67372;SDS011;54257;54.496;18.412;2022-12-17T11:24:07;26.80;;;14.70;;
67372;SDS011;54257;54.496;18.412;2022-12-17T11:26:57;27.80;;;15.70;;
67372;SDS011;54257;54.496;18.412;2022-12-17T11:29:47;24.40;;;13.90;;
67372;SDS011;54257;54.496;18.412;2022-12-17T11:35:44;22.50;;;13.90;;
67372;SDS011;54257;54.496;18.412;2022-12-17T11:38:44;27.30;;;15.10;;
67372;SDS011;54257;54.496;18.412;2022-12-17T11:41:53;29.50;;;15.10;;
67372;SDS011;54257;54.496;18.412;2022-12-17T11:45:03;23.80;;;13.90;;
67372;SDS011;54257;54.496;18.412;2022-12-17T11:48:09;25.60;;;14.90;;
67372;SDS011;54257;54.496;18.412;2022-12-17T11:51:15;22.90;;;14.60;;
67372;SDS011;54257;54.496;18.412;2022-12-17T11:57:20;29.10;;;16.20;;
67372;SDS011;54257;54.496;18.412;2022-12-17T12:00:20;28.30;;;16.30;;
67372;SDS011;54257;54.496;18.412;2022-12-17T12:09:34;30.20;;;15.90;;
67372;SDS011;54257;54.496;18.412;2022-12-17T12:12:40;29.30;;;16.80;;
67372;SDS011;54257;54.496;18.412;2022-12-17T12:22:00;34.60;;;17.30;;
67372;SDS011;54257;54.496;18.412;2022-12-17T12:31:12;49.80;;;25.20;;
67372;SDS011;54257;54.496;18.412;2022-12-17T12:34:11;48.30;;;25.00;;
67372;SDS011;54257;54.496;18.412;2022-12-17T12:37:02;33.20;;;18.80;;
67372;SDS011;54257;54.496;18.412;2022-12-17T12:40:01;34.90;;;18.20;;
67372;SDS011;54257;54.496;18.412;2022-12-17T12:45:55;34.30;;;18.70;;
67372;SDS011;54257;54.496;18.412;2022-12-17T12:48:48;33.00;;;18.10;;
67372;SDS011;54257;54.496;18.412;2022-12-17T12:51:42;33.20;;;17.30;;
67372;SDS011;54257;54.496;18.412;2022-12-17T12:54:47;28.60;;;16.60;;
67372;SDS011;54257;54.496;18.412;2022-12-17T13:03:37;33.70;;;16.80;;
67372;SDS011;54257;54.496;18.412;2022-12-17T13:11:54;26.60;;;15.70;;
67372;SDS011;54257;54.496;18.412;2022-12-17T13:14:46;32.50;;;16.90;;
67372;SDS011;54257;54.496;18.412;2022-12-17T13:17:34;32.40;;;17.90;;
67372;SDS011;54257;54.496;18.412;2022-12-17T13:25:32;32.70;;;16.20;;
67372;SDS011;54257;54.496;18.412;2022-12-17T13:28:00;34.00;;;17.30;;
67372;SDS011;54257;54.496;18.412;2022-12-17T13:30:36;36.60;;;17.40;;
67372;SDS011;54257;54.496;18.412;2022-12-17T13:33:14;33.20;;;15.50;;
67372;SDS011;54257;54.496;18.412;2022-12-17T13:38:32;27.80;;;15.30;;
67372;SDS011;54257;54.496;18.412;2022-12-17T13:41:16;26.90;;;13.40;;
67372;SDS011;54257;54.496;18.412;2022-12-17T13:51:32;22.60;;;12.30;;
67372;SDS011;54257;54.496;18.412;2022-12-17T13:54:02;22.50;;;12.10;;
67372;SDS011;54257;54.496;18.412;2022-12-17T13:56:31;22.00;;;12.90;;
67372;SDS011;54257;54.496;18.412;2022-12-17T13:59:01;21.80;;;12.00;;
67372;SDS011;54257;54.496;18.412;2022-12-17T14:01:29;24.50;;;13.30;;
67372;SDS011;54257;54.496;18.412;2022-12-17T14:03:58;25.20;;;13.70;;
67372;SDS011;54257;54.496;18.412;2022-12-17T14:06:28;22.10;;;13.50;;
67372;SDS011;54257;54.496;18.412;2022-12-17T14:09:00;21.90;;;12.20;;
67372;SDS011;54257;54.496;18.412;2022-12-17T14:11:28;21.00;;;12.80;;
67372;SDS011;54257;54.496;18.412;2022-12-17T14:14:22;21.70;;;11.70;;
67372;SDS011;54257;54.496;18.412;2022-12-17T14:16:51;25.60;;;13.80;;
67372;SDS011;54257;54.496;18.412;2022-12-17T14:19:22;19.00;;;11.60;;
67372;SDS011;54257;54.496;18.412;2022-12-17T14:21:51;22.40;;;11.70;;
67372;SDS011;54257;54.496;18.412;2022-12-17T14:24:19;17.00;;;11.40;;
67372;SDS011;54257;54.496;18.412;2022-12-17T14:26:53;25.40;;;12.20;;
67372;SDS011;54257;54.496;18.412;2022-12-17T14:29:29;22.30;;;12.30;;
67372;SDS011;54257;54.496;18.412;2022-12-17T14:31:59;20.00;;;12.40;;
67372;SDS011;54257;54.496;18.412;2022-12-17T14:34:28;24.90;;;12.90;;
67372;SDS011;54257;54.496;18.412;2022-12-17T14:37:12;17.50;;;10.60;;
67372;SDS011;54257;54.496;18.412;2022-12-17T14:39:43;24.70;;;13.00;;
67372;SDS011;54257;54.496;18.412;2022-12-17T14:42:19;29.60;;;14.90;;
67372;SDS011;54257;54.496;18.412;2022-12-17T14:44:59;19.90;;;11.70;;
67372;SDS011;54257;54.496;18.412;2022-12-17T14:47:29;21.80;;;13.20;;
67372;SDS011;54257;54.496;18.412;2022-12-17T15:00:54;17.10;;;10.50;;
67372;SDS011;54257;54.496;18.412;2022-12-17T15:03:41;20.70;;;11.60;;
67372;SDS011;54257;54.496;18.412;2022-12-17T15:06:15;21.00;;;12.00;;
67372;SDS011;54257;54.496;18.412;2022-12-17T15:08:46;22.80;;;11.40;;
67372;SDS011;54257;54.496;18.412;2022-12-17T15:11:16;21.10;;;10.90;;
67372;SDS011;54257;54.496;18.412;2022-12-17T15:13:45;24.70;;;13.00;;
67372;SDS011;54257;54.496;18.412;2022-12-17T15:16:13;20.60;;;10.40;;
67372;SDS011;54257;54.496;18.412;2022-12-17T15:18:41;18.50;;;10.80;;
67372;SDS011;54257;54.496;18.412;2022-12-17T15:21:08;21.40;;;12.10;;
67372;SDS011;54257;54.496;18.412;2022-12-17T15:23:38;25.10;;;13.50;;
67372;SDS011;54257;54.496;18.412;2022-12-17T15:26:09;24.90;;;12.40;;
67372;SDS011;54257;54.496;18.412;2022-12-17T15:28:40;20.80;;;11.20;;
67372;SDS011;54257;54.496;18.412;2022-12-17T15:31:12;24.40;;;11.40;;
67372;SDS011;54257;54.496;18.412;2022-12-17T15:33:41;19.00;;;10.90;;
67372;SDS011;54257;54.496;18.412;2022-12-17T15:36:11;20.00;;;10.40;;
67372;SDS011;54257;54.496;18.412;2022-12-17T15:38:38;25.30;;;12.50;;
67372;SDS011;54257;54.496;18.412;2022-12-17T15:41:06;22.70;;;12.40;;
67372;SDS011;54257;54.496;18.412;2022-12-17T15:43:54;24.20;;;12.40;;
67372;SDS011;54257;54.496;18.412;2022-12-17T15:46:26;23.70;;;13.00;;
67372;SDS011;54257;54.496;18.412;2022-12-17T15:48:57;21.40;;;12.30;;
67372;SDS011;54257;54.496;18.412;2022-12-17T15:51:26;17.50;;;10.10;;
67372;SDS011;54257;54.496;18.412;2022-12-17T15:53:53;19.20;;;10.90;;
67372;SDS011;54257;54.496;18.412;2022-12-17T15:56:24;24.10;;;11.20;;
67372;SDS011;54257;54.496;18.412;2022-12-17T15:58:56;23.00;;;12.40;;
67372;SDS011;54257;54.496;18.412;2022-12-17T16:01:24;21.80;;;11.50;;
67372;SDS011;54257;54.496;18.412;2022-12-17T16:03:52;21.50;;;12.00;;
67372;SDS011;54257;54.496;18.412;2022-12-17T16:06:19;22.50;;;13.20;;
67372;SDS011;54257;54.496;18.412;2022-12-17T16:08:50;25.40;;;13.90;;
67372;SDS011;54257;54.496;18.412;2022-12-17T16:11:17;29.70;;;15.10;;
67372;SDS011;54257;54.496;18.412;2022-12-17T16:13:46;25.10;;;14.10;;
67372;SDS011;54257;54.496;18.412;2022-12-17T16:16:20;25.30;;;14.50;;
67372;SDS011;54257;54.496;18.412;2022-12-17T16:18:49;22.30;;;14.50;;
67372;SDS011;54257;54.496;18.412;2022-12-17T16:21:18;26.10;;;14.40;;
67372;SDS011;54257;54.496;18.412;2022-12-17T16:23:45;26.30;;;15.80;;
67372;SDS011;54257;54.496;18.412;2022-12-17T16:26:12;26.00;;;14.70;;
67372;SDS011;54257;54.496;18.412;2022-12-17T16:28:40;24.40;;;13.70;;
67372;SDS011;54257;54.496;18.412;2022-12-17T16:31:13;24.50;;;14.10;;
67372;SDS011;54257;54.496;18.412;2022-12-17T16:33:43;21.20;;;13.10;;
67372;SDS011;54257;54.496;18.412;2022-12-17T16:36:14;25.00;;;15.40;;
67372;SDS011;54257;54.496;18.412;2022-12-17T16:38:44;25.50;;;13.40;;
67372;SDS011;54257;54.496;18.412;2022-12-17T16:41:14;26.30;;;14.70;;
67372;SDS011;54257;54.496;18.412;2022-12-17T16:43:44;26.80;;;14.30;;
67372;SDS011;54257;54.496;18.412;2022-12-17T16:49:03;24.50;;;14.90;;
67372;SDS011;54257;54.496;18.412;2022-12-17T16:51:33;23.70;;;13.40;;
67372;SDS011;54257;54.496;18.412;2022-12-17T16:54:10;25.30;;;13.10;;
67372;SDS011;54257;54.496;18.412;2022-12-17T16:56:41;26.20;;;14.10;;
67372;SDS011;54257;54.496;18.412;2022-12-17T16:59:10;20.50;;;12.30;;
67372;SDS011;54257;54.496;18.412;2022-12-17T17:01:43;20.60;;;11.60;;
67372;SDS011;54257;54.496;18.412;2022-12-17T17:04:21;34.20;;;16.20;;
67372;SDS011;54257;54.496;18.412;2022-12-17T17:06:54;25.70;;;13.80;;
67372;SDS011;54257;54.496;18.412;2022-12-17T17:09:22;28.90;;;15.20;;
67372;SDS011;54257;54.496;18.412;2022-12-17T17:11:53;41.40;;;21.60;;
67372;SDS011;54257;54.496;18.412;2022-12-17T17:14:23;38.60;;;20.50;;
67372;SDS011;54257;54.496;18.412;2022-12-17T17:16:56;41.90;;;22.70;;
67372;SDS011;54257;54.496;18.412;2022-12-17T17:19:23;28.60;;;15.60;;